Time;durP1;ratioP1;P1;durP2;ratioP2;P2;SDS_P1;SDS_P2;PMS_P1;PMS_P2;Temp;Humidity;BMP_temperature;BMP_pressure;BME280_temperature;BME280_humidity;BME280_pressure;Samples;Min_cycle;Max_cycle;Signal;HPM_P1;HPM_P2
2021/03/16 00:00:26;;;;;;;7.00;2.05;;;;;;;;;;5094430;28;20024;-54
2021/03/16 00:02:52;;;;;;;3.63;1.73;;;;;;;;;;5095841;28;20070;-54
2021/03/16 00:05:18;;;;;;;6.60;2.22;;;;;;;;;;5095373;28;20020;-54
2021/03/16 00:07:44;;;;;;;3.35;2.05;;;;;;;;;;5095002;28;20039;-55
2021/03/16 00:10:10;;;;;;;3.85;2.08;;;;;;;;;;5095093;28;20027;-55
2021/03/16 00:12:36;;;;;;;5.07;1.95;;;;;;;;;;5095228;28;20106;-55
2021/03/16 00:15:03;;;;;;;1.67;1.45;;;;;;;;;;5095510;28;20047;-54
2021/03/16 00:17:29;;;;;;;8.00;2.33;;;;;;;;;;5094809;28;20031;-54
2021/03/16 00:19:55;;;;;;;6.15;2.10;;;;;;;;;;5095160;28;20040;-55
2021/03/16 00:22:21;;;;;;;6.05;2.17;;;;;;;;;;5094943;28;20020;-55
2021/03/16 00:24:47;;;;;;;2.97;2.25;;;;;;;;;;5094845;28;20039;-54
2021/03/16 00:27:13;;;;;;;3.63;2.25;;;;;;;;;;5094912;28;20013;-55
2021/03/16 00:29:39;;;;;;;7.13;2.33;;;;;;;;;;5095001;28;20456;-54
2021/03/16 00:32:05;;;;;;;6.13;2.20;;;;;;;;;;5094837;28;20043;-54
2021/03/16 00:34:32;;;;;;;8.02;3.03;;;;;;;;;;5094965;28;20107;-55
2021/03/16 00:36:57;;;;;;;6.95;2.05;;;;;;;;;;5094594;28;20048;-55
2021/03/16 00:39:24;;;;;;;5.95;2.70;;;;;;;;;;5094429;28;20059;-55
2021/03/16 00:41:50;;;;;;;11.70;2.88;;;;;;;;;;5094455;28;20432;-55
2021/03/16 00:44:16;;;;;;;3.00;1.80;;;;;;;;;;5094840;28;20504;-54
2021/03/16 00:46:42;;;;;;;3.92;1.77;;;;;;;;;;5094722;28;20357;-54
2021/03/16 00:49:08;;;;;;;5.75;2.22;;;;;;;;;;5094428;28;20402;-55
2021/03/16 00:51:34;;;;;;;4.72;2.50;;;;;;;;;;5094362;28;20030;-55
2021/03/16 00:54:00;;;;;;;2.50;2.00;;;;;;;;;;5094309;28;20020;-55
2021/03/16 00:56:26;;;;;;;9.65;2.80;;;;;;;;;;5094396;28;20031;-54
2021/03/16 00:58:52;;;;;;;4.63;1.77;;;;;;;;;;5094017;28;20024;-55
2021/03/16 01:01:18;;;;;;;5.85;1.90;;;;;;;;;;5094159;28;20355;-54
2021/03/16 01:03:44;;;;;;;7.45;1.80;;;;;;;;;;5094437;28;20358;-55
2021/03/16 01:06:10;;;;;;;3.83;1.52;;;;;;;;;;5094178;28;20020;-55
2021/03/16 01:08:36;;;;;;;5.63;2.58;;;;;;;;;;5093555;28;20040;-55
2021/03/16 01:11:02;;;;;;;10.90;2.72;;;;;;;;;;5094335;28;20106;-55
2021/03/16 01:13:28;;;;;;;7.13;2.20;;;;;;;;;;5094037;28;20426;-55
2021/03/16 01:15:54;;;;;;;5.18;2.33;;;;;;;;;;5094185;28;20547;-54
2021/03/16 01:18:21;;;;;;;4.72;2.35;;;;;;;;;;5093667;28;20438;-55
2021/03/16 01:20:47;;;;;;;10.05;2.00;;;;;;;;;;5094011;28;20112;-55
2021/03/16 01:23:13;;;;;;;7.68;1.92;;;;;;;;;;5093656;28;20074;-54
2021/03/16 01:25:39;;;;;;;7.97;2.05;;;;;;;;;;5094076;28;20031;-54
2021/03/16 01:28:06;;;;;;;5.10;1.65;;;;;;;;;;5093707;28;20017;-55
2021/03/16 01:30:32;;;;;;;8.85;2.17;;;;;;;;;;5094053;28;20029;-55
2021/03/16 01:32:58;;;;;;;4.03;1.55;;;;;;;;;;5093693;28;20024;-54
2021/03/16 01:35:24;;;;;;;11.52;2.30;;;;;;;;;;5093852;28;20498;-54
2021/03/16 01:37:51;;;;;;;4.07;1.58;;;;;;;;;;5093086;28;20024;-54
2021/03/16 01:40:19;;;;;;;6.00;1.63;;;;;;;;;;5093671;28;20089;-54
2021/03/16 01:42:45;;;;;;;3.35;1.65;;;;;;;;;;5093442;28;20111;-54
2021/03/16 01:45:13;;;;;;;5.88;1.88;;;;;;;;;;5093753;28;20338;-55
2021/03/16 01:47:40;;;;;;;4.50;2.00;;;;;;;;;;5093199;28;20016;-54
2021/03/16 01:50:09;;;;;;;9.32;1.55;;;;;;;;;;5093310;28;20140;-55
2021/03/16 01:52:36;;;;;;;8.30;1.90;;;;;;;;;;5093460;28;20095;-54
2021/03/16 01:55:03;;;;;;;9.90;1.65;;;;;;;;;;5093724;28;20016;-54
2021/03/16 01:57:30;;;;;;;9.98;1.85;;;;;;;;;;5093177;28;20024;-55
2021/03/16 01:59:56;;;;;;;2.83;1.30;;;;;;;;;;5093369;28;20024;-54
2021/03/16 02:02:22;;;;;;;4.78;1.92;;;;;;;;;;5093332;28;20035;-55
2021/03/16 02:04:49;;;;;;;7.13;1.88;;;;;;;;;;5093104;28;20115;-55
2021/03/16 02:07:21;;;;;;;4.30;1.85;;;;;;;;;;5093374;28;20349;-54
2021/03/16 02:09:51;;;;;;;6.30;2.58;;;;;;;;;;5093385;28;20031;-55
2021/03/16 02:12:24;;;;;;;4.00;1.38;;;;;;;;;;5093345;28;20052;-55
2021/03/16 02:14:54;;;;;;;7.05;1.67;;;;;;;;;;5093340;28;20026;-54
2021/03/16 02:17:27;;;;;;;14.15;2.55;;;;;;;;;;5092556;28;20370;-55
2021/03/16 02:19:58;;;;;;;3.10;1.77;;;;;;;;;;5093164;28;20060;-55
2021/03/16 02:22:26;;;;;;;3.42;1.73;;;;;;;;;;5093703;28;20098;-55
2021/03/16 02:24:52;;;;;;;2.25;1.58;;;;;;;;;;5097591;28;20020;-54
2021/03/16 02:27:19;;;;;;;8.80;1.92;;;;;;;;;;5096968;28;20327;-55
2021/03/16 02:29:47;;;;;;;6.80;1.50;;;;;;;;;;5096913;28;20030;-55
2021/03/16 02:32:17;;;;;;;4.30;1.90;;;;;;;;;;5097249;28;20074;-55
2021/03/16 02:34:43;;;;;;;;;;;;;;;;;;5097931;28;20020;-55
2021/03/16 02:37:11;;;;;;;1.95;1.40;;;;;;;;;;5096824;28;19957;-54
2021/03/16 02:39:38;;;;;;;3.20;1.27;;;;;;;;;;5097088;28;20028;-55
2021/03/16 02:42:05;;;;;;;8.95;1.60;;;;;;;;;;5096783;28;20039;-55
2021/03/16 02:44:31;;;;;;;6.20;1.70;;;;;;;;;;5096699;28;20516;-54
2021/03/16 02:46:57;;;;;;;6.18;1.50;;;;;;;;;;5096874;28;20361;-55
2021/03/16 02:49:24;;;;;;;3.38;1.48;;;;;;;;;;5096686;28;20361;-54
2021/03/16 02:51:54;;;;;;;5.68;1.70;;;;;;;;;;5097078;28;20020;-54
2021/03/16 02:54:21;;;;;;;7.72;1.70;;;;;;;;;;5096774;28;20458;-55
2021/03/16 02:56:48;;;;;;;2.45;1.83;;;;;;;;;;5096496;28;20107;-55
2021/03/16 02:59:16;;;;;;;4.25;1.48;;;;;;;;;;5096300;28;20036;-54
2021/03/16 03:01:43;;;;;;;6.30;2.10;;;;;;;;;;5096675;28;20530;-55
2021/03/16 03:04:09;;;;;;;5.05;1.98;;;;;;;;;;5096510;28;20016;-55
2021/03/16 03:06:38;;;;;;;3.60;1.10;;;;;;;;;;5096542;28;20034;-55
2021/03/16 03:09:04;;;;;;;3.38;1.40;;;;;;;;;;5096247;28;20373;-55
2021/03/16 03:11:33;;;;;;;5.38;1.35;;;;;;;;;;5096318;28;20364;-55
2021/03/16 03:14:00;;;;;;;1.83;1.30;;;;;;;;;;5096237;28;20025;-55
2021/03/16 03:16:28;;;;;;;4.43;1.42;;;;;;;;;;5096660;28;20099;-55
2021/03/16 03:18:54;;;;;;;1.60;1.15;;;;;;;;;;5096087;28;20028;-55
2021/03/16 03:21:25;;;;;;;3.20;1.52;;;;;;;;;;5096311;28;20118;-55
2021/03/16 03:23:56;;;;;;;5.93;1.90;;;;;;;;;;5095921;28;20023;-55
2021/03/16 03:26:25;;;;;;;3.42;1.27;;;;;;;;;;5096539;28;20028;-55
2021/03/16 03:28:52;;;;;;;8.65;1.48;;;;;;;;;;5095809;28;20054;-55
2021/03/16 03:31:18;;;;;;;3.92;1.63;;;;;;;;;;5091180;28;20452;-55
2021/03/16 03:33:45;;;;;;;3.97;1.20;;;;;;;;;;5095083;28;20044;-55
2021/03/16 03:36:11;;;;;;;8.15;1.40;;;;;;;;;;5095458;28;20377;-55
2021/03/16 03:38:38;;;;;;;3.47;1.30;;;;;;;;;;5095369;28;20027;-55
2021/03/16 03:41:05;;;;;;;1.23;1.10;;;;;;;;;;5095996;28;20028;-55
2021/03/16 03:43:33;;;;;;;2.50;1.50;;;;;;;;;;5095903;28;20093;-55
2021/03/16 03:45:59;;;;;;;2.85;1.13;;;;;;;;;;5095817;28;20101;-55
2021/03/16 03:48:27;;;;;;;5.65;1.50;;;;;;;;;;5095517;28;20107;-55
2021/03/16 03:50:53;;;;;;;3.65;2.03;;;;;;;;;;5095572;28;20021;-55
2021/03/16 03:53:20;;;;;;;3.60;1.60;;;;;;;;;;5095386;28;20342;-55
2021/03/16 03:55:47;;;;;;;6.03;1.65;;;;;;;;;;5095883;28;20024;-55
2021/03/16 03:58:14;;;;;;;2.85;1.90;;;;;;;;;;5095354;28;20020;-55
2021/03/16 04:00:40;;;;;;;3.30;1.40;;;;;;;;;;5095347;28;20047;-55
2021/03/16 04:03:07;;;;;;;5.43;1.35;;;;;;;;;;5095555;28;20028;-55
2021/03/16 04:05:33;;;;;;;2.72;1.33;;;;;;;;;;5101967;28;20441;-56
2021/03/16 04:07:59;;;;;;;2.10;1.30;;;;;;;;;;5115135;28;20031;-55
2021/03/16 04:10:26;;;;;;;4.65;1.50;;;;;;;;;;5115851;28;20019;-55
2021/03/16 04:12:52;;;;;;;6.55;1.55;;;;;;;;;;5115821;28;20108;-55
2021/03/16 04:15:19;;;;;;;5.22;1.80;;;;;;;;;;5115667;28;20031;-55
2021/03/16 04:17:45;;;;;;;2.33;1.20;;;;;;;;;;5115298;28;20094;-55
2021/03/16 04:20:13;;;;;;;4.97;1.63;;;;;;;;;;5115552;28;20032;-56
2021/03/16 04:22:39;;;;;;;4.53;1.33;;;;;;;;;;5115246;28;20094;-55
2021/03/16 04:25:05;;;;;;;7.18;1.83;;;;;;;;;;5115781;28;20104;-56
2021/03/16 04:27:31;;;;;;;6.70;1.70;;;;;;;;;;5115313;28;20020;-55
2021/03/16 04:29:57;;;;;;;5.00;1.20;;;;;;;;;;5115324;28;20023;-55
2021/03/16 04:32:23;;;;;;;7.68;1.10;;;;;;;;;;5115308;27;20362;-55
2021/03/16 04:34:49;;;;;;;3.00;1.00;;;;;;;;;;5115267;28;20437;-55
2021/03/16 04:37:15;;;;;;;10.27;1.50;;;;;;;;;;5114802;28;20034;-55
2021/03/16 04:39:41;;;;;;;3.90;1.40;;;;;;;;;;5115308;28;20081;-56
2021/03/16 04:42:08;;;;;;;5.25;1.55;;;;;;;;;;5114964;28;20403;-56
2021/03/16 04:44:34;;;;;;;2.88;1.20;;;;;;;;;;5115274;28;20030;-56
2021/03/16 04:47:00;;;;;;;7.28;1.50;;;;;;;;;;5114175;28;20479;-56
2021/03/16 04:49:26;;;;;;;3.13;1.83;;;;;;;;;;5115351;28;20020;-55
2021/03/16 04:51:52;;;;;;;3.15;1.48;;;;;;;;;;5114868;28;20032;-55
2021/03/16 04:54:18;;;;;;;2.83;1.27;;;;;;;;;;5115149;28;20024;-55
2021/03/16 04:56:44;;;;;;;4.40;1.50;;;;;;;;;;5114826;28;20023;-56
2021/03/16 04:59:10;;;;;;;4.72;1.63;;;;;;;;;;5114565;27;20032;-55
2021/03/16 05:01:36;;;;;;;3.25;1.40;;;;;;;;;;5114497;27;20036;-55
2021/03/16 05:04:02;;;;;;;5.15;1.40;;;;;;;;;;5114583;28;20521;-55
2021/03/16 05:06:28;;;;;;;2.97;1.60;;;;;;;;;;5114747;28;20110;-56
2021/03/16 05:08:56;;;;;;;3.85;1.60;;;;;;;;;;5114336;28;20027;-55
2021/03/16 05:11:23;;;;;;;2.70;1.48;;;;;;;;;;5114655;28;20021;-56
2021/03/16 05:13:49;;;;;;;1.73;1.15;;;;;;;;;;5113980;28;20457;-55
2021/03/16 05:16:15;;;;;;;8.98;1.80;;;;;;;;;;5114985;28;20034;-55
2021/03/16 05:18:41;;;;;;;3.92;1.52;;;;;;;;;;5113897;28;20030;-55
2021/03/16 05:21:07;;;;;;;3.08;2.10;;;;;;;;;;5114671;28;20032;-55
2021/03/16 05:23:33;;;;;;;7.85;1.60;;;;;;;;;;5114294;28;20405;-55
2021/03/16 05:25:59;;;;;;;3.65;1.17;;;;;;;;;;5114186;28;20038;-55
2021/03/16 05:28:25;;;;;;;1.98;1.23;;;;;;;;;;5114411;28;20100;-55
2021/03/16 05:30:51;;;;;;;7.55;1.52;;;;;;;;;;5114806;28;20023;-56
2021/03/16 05:33:20;;;;;;;5.28;1.50;;;;;;;;;;5113946;28;20020;-55
2021/03/16 05:35:46;;;;;;;3.35;1.20;;;;;;;;;;5114135;28;20026;-56
2021/03/16 05:38:13;;;;;;;1.95;1.20;;;;;;;;;;5113862;28;20360;-55
2021/03/16 05:40:39;;;;;;;2.85;1.20;;;;;;;;;;5114108;28;20042;-55
2021/03/16 05:43:06;;;;;;;8.40;1.33;;;;;;;;;;5114351;28;20039;-55
2021/03/16 05:45:32;;;;;;;5.80;1.90;;;;;;;;;;5114059;28;20020;-55
2021/03/16 05:47:58;;;;;;;4.18;1.38;;;;;;;;;;5113417;28;20119;-55
2021/03/16 05:50:24;;;;;;;5.45;1.40;;;;;;;;;;5113622;28;20080;-55
2021/03/16 05:52:54;;;;;;;2.47;1.48;;;;;;;;;;5113407;28;20505;-55
2021/03/16 05:55:20;;;;;;;5.18;1.48;;;;;;;;;;5114040;28;20016;-55
2021/03/16 05:57:49;;;;;;;3.03;1.40;;;;;;;;;;5112758;28;20111;-55
2021/03/16 06:00:15;;;;;;;8.10;1.63;;;;;;;;;;5114108;28;20035;-55
2021/03/16 06:02:41;;;;;;;3.03;1.50;;;;;;;;;;5113470;28;20035;-55
2021/03/16 06:05:08;;;;;;;1.90;1.20;;;;;;;;;;5113776;28;20064;-55
2021/03/16 06:07:34;;;;;;;1.73;1.33;;;;;;;;;;5113470;28;20028;-55
2021/03/16 06:10:00;;;;;;;3.78;1.23;;;;;;;;;;5113760;28;20418;-55
2021/03/16 06:12:30;;;;;;;1.55;1.08;;;;;;;;;;5113529;28;20077;-56
2021/03/16 06:14:56;;;;;;;5.63;1.30;;;;;;;;;;5113535;28;20050;-55
2021/03/16 06:17:22;;;;;;;7.75;1.10;;;;;;;;;;5113331;28;20055;-55
2021/03/16 06:19:48;;;;;;;3.03;1.02;;;;;;;;;;5109923;28;20123;-55
2021/03/16 06:22:19;;;;;;;4.75;1.17;;;;;;;;;;5113721;28;20068;-55
2021/03/16 06:24:46;;;;;;;3.30;1.38;;;;;;;;;;5109356;28;20023;-56
2021/03/16 06:27:24;;;;;;;2.92;1.70;;;;;;;;;;5098866;28;20024;-55
2021/03/16 06:29:51;;;;;;;7.60;1.60;;;;;;;;;;5093109;28;20027;-55
2021/03/16 06:32:17;;;;;;;6.53;1.30;;;;;;;;;;5101723;28;20042;-55
2021/03/16 06:34:44;;;;;;;3.90;1.42;;;;;;;;;;5113461;28;20023;-55
2021/03/16 06:37:10;;;;;;;1.83;0.93;;;;;;;;;;5113056;28;20338;-55
2021/03/16 06:39:42;;;;;;;5.60;1.55;;;;;;;;;;5113207;28;20047;-55
2021/03/16 06:42:08;;;;;;;7.68;1.95;;;;;;;;;;5113091;28;20138;-55
2021/03/16 06:44:34;;;;;;;3.28;1.33;;;;;;;;;;5113226;28;20079;-55
2021/03/16 06:47:02;;;;;;;2.50;1.05;;;;;;;;;;5113474;28;20080;-55
2021/03/16 06:49:33;;;;;;;3.40;1.20;;;;;;;;;;5113558;28;20045;-55
2021/03/16 06:52:10;;;;;;;2.58;1.50;;;;;;;;;;5113305;28;20051;-55
2021/03/16 06:54:37;;;;;;;5.07;1.30;;;;;;;;;;5111945;28;20098;-56
2021/03/16 06:57:03;;;;;;;3.22;1.20;;;;;;;;;;5113258;28;20058;-55
2021/03/16 06:59:30;;;;;;;10.05;1.65;;;;;;;;;;5113406;28;20019;-55
2021/03/16 07:01:56;;;;;;;7.88;1.67;;;;;;;;;;5113195;28;20039;-56
2021/03/16 07:04:23;;;;;;;3.38;1.40;;;;;;;;;;5113245;28;20015;-55
2021/03/16 07:06:49;;;;;;;5.38;1.48;;;;;;;;;;5113121;28;20063;-56
2021/03/16 07:09:16;;;;;;;3.25;1.30;;;;;;;;;;5114183;28;20027;-56
2021/03/16 07:11:47;;;;;;;7.53;1.20;;;;;;;;;;5117042;28;20073;-55
2021/03/16 07:14:14;;;;;;;2.38;1.30;;;;;;;;;;5116997;28;20024;-55
2021/03/16 07:16:42;;;;;;;2.42;1.17;;;;;;;;;;5116920;28;20413;-55
2021/03/16 07:19:09;;;;;;;7.35;2.20;;;;;;;;;;5116572;28;20024;-55
2021/03/16 07:21:43;;;;;;;6.32;1.35;;;;;;;;;;5116545;28;20043;-55
2021/03/16 07:24:10;;;;;;;1.13;0.88;;;;;;;;;;5116697;28;20030;-55
2021/03/16 07:26:36;;;;;;;2.22;1.10;;;;;;;;;;5116667;27;20027;-55
2021/03/16 07:29:06;;;;;;;2.50;1.20;;;;;;;;;;5116253;28;20051;-55
2021/03/16 07:31:32;;;;;;;;;;;;;;;;;;5117188;28;20099;-55
2021/03/16 07:34:01;;;;;;;5.20;1.30;;;;;;;;;;5116258;28;20368;-55
2021/03/16 07:36:27;;;;;;;3.13;1.90;;;;;;;;;;5116771;28;20019;-55
2021/03/16 07:38:54;;;;;;;4.28;1.77;;;;;;;;;;5115899;28;20035;-55
2021/03/16 07:41:19;;;;;;;3.65;1.50;;;;;;;;;;5116255;28;20446;-55
2021/03/16 07:43:45;;;;;;;6.90;1.65;;;;;;;;;;5116235;27;20204;-55
2021/03/16 07:46:11;;;;;;;6.25;2.38;;;;;;;;;;5110081;28;20034;-55
2021/03/16 07:48:42;;;;;;;10.40;2.53;;;;;;;;;;5103653;28;20024;-55
2021/03/16 07:51:09;;;;;;;8.73;1.85;;;;;;;;;;5095331;28;20020;-55
2021/03/16 07:53:35;;;;;;;9.13;2.58;;;;;;;;;;5095331;28;20134;-55
2021/03/16 07:56:08;;;;;;;1.85;1.67;;;;;;;;;;5095926;28;20113;-55
2021/03/16 07:58:42;;;;;;;3.97;1.95;;;;;;;;;;5094231;28;20039;-55
2021/03/16 08:01:08;;;;;;;7.05;2.30;;;;;;;;;;5103697;28;20093;-55
2021/03/16 08:03:34;;;;;;;11.63;2.25;;;;;;;;;;5095667;28;20024;-55
2021/03/16 08:06:00;;;;;;;4.28;1.25;;;;;;;;;;5105850;28;20111;-55
2021/03/16 08:08:26;;;;;;;5.80;2.35;;;;;;;;;;5115748;28;20051;-55
2021/03/16 08:10:52;;;;;;;3.90;1.73;;;;;;;;;;5115810;28;20440;-55
2021/03/16 08:13:19;;;;;;;6.05;1.60;;;;;;;;;;5115739;28;20030;-55
2021/03/16 08:15:46;;;;;;;6.72;1.80;;;;;;;;;;5115429;27;20441;-55
2021/03/16 08:18:13;;;;;;;2.85;1.67;;;;;;;;;;5115779;28;20089;-55
2021/03/16 08:20:39;;;;;;;7.13;2.08;;;;;;;;;;5114639;28;20111;-55
2021/03/16 08:23:07;;;;;;;13.20;2.13;;;;;;;;;;5115504;28;20022;-55
2021/03/16 08:25:33;;;;;;;8.65;2.03;;;;;;;;;;5115573;28;20066;-55
2021/03/16 08:28:06;;;;;;;9.68;1.92;;;;;;;;;;5115651;28;20024;-55
2021/03/16 08:30:32;;;;;;;6.97;2.05;;;;;;;;;;5115432;28;20055;-55
2021/03/16 08:32:59;;;;;;;6.75;2.08;;;;;;;;;;5115336;28;20362;-55
2021/03/16 08:35:25;;;;;;;4.18;1.75;;;;;;;;;;5115335;28;20157;-55
2021/03/16 08:37:51;;;;;;;6.43;1.83;;;;;;;;;;5115063;27;20090;-55
2021/03/16 08:40:24;;;;;;;6.38;2.10;;;;;;;;;;5114706;27;20027;-55
2021/03/16 08:42:50;;;;;;;6.47;2.15;;;;;;;;;;5114843;28;20024;-55
2021/03/16 08:45:27;;;;;;;7.47;2.38;;;;;;;;;;5115290;28;20024;-55
2021/03/16 08:47:53;;;;;;;8.98;2.40;;;;;;;;;;5115142;28;20408;-55
2021/03/16 08:50:22;;;;;;;9.57;2.20;;;;;;;;;;5115002;28;20062;-55
2021/03/16 08:52:48;;;;;;;4.28;1.60;;;;;;;;;;5115025;28;20023;-55
2021/03/16 08:55:23;;;;;;;2.95;1.75;;;;;;;;;;5114657;28;20099;-56
2021/03/16 08:57:49;;;;;;;12.02;2.15;;;;;;;;;;5114576;28;20445;-55
2021/03/16 09:00:15;;;;;;;8.93;1.65;;;;;;;;;;5114854;28;20028;-55
2021/03/16 09:02:41;;;;;;;2.70;1.80;;;;;;;;;;5114886;28;20027;-55
2021/03/16 09:05:17;;;;;;;7.00;2.10;;;;;;;;;;5114697;28;20102;-55
2021/03/16 09:07:43;;;;;;;7.22;2.15;;;;;;;;;;5114153;28;20577;-55
2021/03/16 09:10:10;;;;;;;9.43;2.22;;;;;;;;;;5114787;28;20110;-55
2021/03/16 09:12:41;;;;;;;6.68;1.85;;;;;;;;;;5114869;28;20028;-55
2021/03/16 09:15:10;;;;;;;15.48;2.08;;;;;;;;;;5113481;28;20027;-55
2021/03/16 09:17:37;;;;;;;4.35;1.92;;;;;;;;;;5114153;28;20512;-56
2021/03/16 09:20:09;;;;;;;6.20;1.88;;;;;;;;;;5114237;28;20110;-55
2021/03/16 09:22:35;;;;;;;5.63;1.88;;;;;;;;;;5114430;28;20420;-55
2021/03/16 09:25:01;;;;;;;4.32;2.50;;;;;;;;;;5114597;28;20046;-55
2021/03/16 09:27:27;;;;;;;6.68;2.05;;;;;;;;;;5114131;28;20102;-55
2021/03/16 09:29:53;;;;;;;5.50;1.65;;;;;;;;;;5114218;28;20437;-55
2021/03/16 09:32:19;;;;;;;4.57;1.70;;;;;;;;;;5114300;28;20032;-55
2021/03/16 09:34:46;;;;;;;10.15;1.55;;;;;;;;;;5113889;28;20140;-55
2021/03/16 09:37:13;;;;;;;6.55;1.88;;;;;;;;;;5113782;28;20511;-55
2021/03/16 09:39:39;;;;;;;7.47;1.83;;;;;;;;;;5114132;28;20460;-55
2021/03/16 09:42:07;;;;;;;6.78;2.10;;;;;;;;;;5113789;28;20388;-56
2021/03/16 09:44:36;;;;;;;2.97;1.63;;;;;;;;;;5114099;28;20403;-55
2021/03/16 09:47:02;;;;;;;5.55;2.90;;;;;;;;;;5113664;28;20027;-55
2021/03/16 09:49:39;;;;;;;3.92;1.92;;;;;;;;;;5114220;28;20019;-55
2021/03/16 09:52:06;;;;;;;1.88;1.42;;;;;;;;;;5113844;28;20055;-55
2021/03/16 09:54:38;;;;;;;3.85;2.05;;;;;;;;;;5113839;28;20360;-56
2021/03/16 09:57:10;;;;;;;8.40;1.77;;;;;;;;;;5113569;28;20319;-55
2021/03/16 09:59:41;;;;;;;8.50;2.00;;;;;;;;;;5113905;28;20028;-55
2021/03/16 10:02:07;;;;;;;7.43;2.22;;;;;;;;;;5113803;28;20103;-55
2021/03/16 10:04:47;;;;;;;8.18;2.70;;;;;;;;;;5113620;28;20020;-55
2021/03/16 10:07:32;;;;;;;6.10;2.13;;;;;;;;;;5113486;28;20028;-55
2021/03/16 10:10:27;;;;;;;3.95;1.95;;;;;;;;;;5113755;28;20093;-55
2021/03/16 10:13:02;;;;;;;9.98;1.80;;;;;;;;;;5070598;28;20055;-55
2021/03/16 10:15:28;;;;;;;3.30;1.67;;;;;;;;;;5070740;28;20059;-56
2021/03/16 10:17:55;;;;;;;9.55;2.22;;;;;;;;;;5069774;28;20036;-55
2021/03/16 10:20:28;;;;;;;5.60;1.83;;;;;;;;;;5070442;28;20450;-55
2021/03/16 10:22:57;;;;;;;8.85;2.47;;;;;;;;;;5070502;28;20040;-56
2021/03/16 10:25:24;;;;;;;7.35;1.60;;;;;;;;;;5070606;28;20099;-55
2021/03/16 10:27:59;;;;;;;3.28;1.33;;;;;;;;;;5070354;28;20063;-55
2021/03/16 10:30:32;;;;;;;4.18;1.70;;;;;;;;;;5070482;28;20094;-55
2021/03/16 10:32:58;;;;;;;2.15;1.55;;;;;;;;;;5070571;28;20021;-56
2021/03/16 10:35:24;;;;;;;10.88;2.10;;;;;;;;;;5070017;28;20078;-55
2021/03/16 10:37:50;;;;;;;3.45;1.77;;;;;;;;;;5070244;28;20104;-55
2021/03/16 10:40:17;;;;;;;5.00;2.45;;;;;;;;;;5070420;28;20112;-55
2021/03/16 10:42:43;;;;;;;1.48;1.38;;;;;;;;;;5070307;28;20040;-56
2021/03/16 10:45:09;;;;;;;8.43;1.90;;;;;;;;;;5073565;28;20124;-55
2021/03/16 10:47:35;;;;;;;10.13;2.10;;;;;;;;;;5073856;28;20480;-55
2021/03/16 10:50:01;;;;;;;7.05;1.92;;;;;;;;;;5109025;28;20073;-55
2021/03/16 10:52:27;;;;;;;9.23;2.03;;;;;;;;;;5117352;28;20500;-55
2021/03/16 10:54:53;;;;;;;9.43;2.15;;;;;;;;;;5117539;28;20031;-55
2021/03/16 10:57:19;;;;;;;7.55;2.33;;;;;;;;;;5116978;27;20688;-55
2021/03/16 10:59:45;;;;;;;3.35;1.67;;;;;;;;;;5117403;28;20023;-55
2021/03/16 11:02:11;;;;;;;3.90;1.98;;;;;;;;;;5116725;28;20032;-55
2021/03/16 11:04:37;;;;;;;8.73;2.92;;;;;;;;;;5117214;28;20020;-55
2021/03/16 11:07:03;;;;;;;4.78;2.33;;;;;;;;;;5116814;28;20382;-55
2021/03/16 11:09:29;;;;;;;8.75;2.30;;;;;;;;;;5116951;27;20161;-55
2021/03/16 11:11:55;;;;;;;9.00;1.95;;;;;;;;;;5117030;28;20024;-55
2021/03/16 11:14:21;;;;;;;3.83;1.88;;;;;;;;;;5117049;28;20023;-55
2021/03/16 11:16:47;;;;;;;3.97;1.80;;;;;;;;;;5116651;28;20028;-55
2021/03/16 11:19:13;;;;;;;3.20;1.83;;;;;;;;;;5116498;27;20024;-55
2021/03/16 11:21:40;;;;;;;3.88;2.30;;;;;;;;;;5116781;28;20085;-55
2021/03/16 11:24:06;;;;;;;4.57;1.98;;;;;;;;;;5117009;28;20024;-55
2021/03/16 11:26:32;;;;;;;2.97;1.50;;;;;;;;;;5116657;28;20356;-55
2021/03/16 11:28:58;;;;;;;8.45;1.77;;;;;;;;;;5116332;28;20016;-55
2021/03/16 11:31:24;;;;;;;6.03;1.90;;;;;;;;;;5116398;28;20084;-55
2021/03/16 11:33:50;;;;;;;2.63;1.52;;;;;;;;;;5116772;28;20399;-55
2021/03/16 11:36:16;;;;;;;5.07;2.13;;;;;;;;;;5116178;28;20032;-55
2021/03/16 11:38:42;;;;;;;5.80;2.25;;;;;;;;;;5116108;28;20452;-55
2021/03/16 11:41:09;;;;;;;6.85;2.03;;;;;;;;;;5116254;28;20092;-55
2021/03/16 11:43:35;;;;;;;3.63;1.92;;;;;;;;;;5116448;28;20118;-55
2021/03/16 11:46:01;;;;;;;3.08;1.88;;;;;;;;;;5116056;28;20031;-55
2021/03/16 11:48:27;;;;;;;4.93;2.00;;;;;;;;;;5116124;28;20015;-55
2021/03/16 11:50:54;;;;;;;9.57;1.70;;;;;;;;;;5116344;28;20145;-55
2021/03/16 11:53:20;;;;;;;4.45;2.20;;;;;;;;;;5116429;28;20027;-55
2021/03/16 11:55:46;;;;;;;10.85;2.20;;;;;;;;;;5115208;28;20493;-55
2021/03/16 11:58:12;;;;;;;6.50;2.08;;;;;;;;;;5116184;28;20110;-55
2021/03/16 12:00:38;;;;;;;4.80;2.10;;;;;;;;;;5115763;28;20360;-55
2021/03/16 12:03:05;;;;;;;2.70;1.45;;;;;;;;;;5116147;28;20035;-55
2021/03/16 12:05:31;;;;;;;2.85;1.70;;;;;;;;;;5116064;28;20024;-55
2021/03/16 12:07:57;;;;;;;7.72;2.05;;;;;;;;;;5115710;28;20033;-55
2021/03/16 12:10:23;;;;;;;4.05;2.08;;;;;;;;;;5115988;28;20024;-55
2021/03/16 12:12:49;;;;;;;4.18;1.48;;;;;;;;;;5115766;28;20268;-55
2021/03/16 12:15:17;;;;;;;6.13;1.77;;;;;;;;;;5115607;28;20027;-55
2021/03/16 12:17:43;;;;;;;11.43;2.33;;;;;;;;;;5115569;28;20028;-55
2021/03/16 12:20:10;;;;;;;3.55;1.90;;;;;;;;;;5115733;28;20030;-55
2021/03/16 12:22:36;;;;;;;3.50;1.88;;;;;;;;;;5115575;28;20031;-55
2021/03/16 12:25:02;;;;;;;7.00;1.92;;;;;;;;;;5115666;28;20027;-55
2021/03/16 12:27:28;;;;;;;5.15;2.00;;;;;;;;;;5115210;28;20027;-55
2021/03/16 12:29:54;;;;;;;3.22;2.00;;;;;;;;;;5115065;28;20053;-55
2021/03/16 12:32:21;;;;;;;9.18;1.75;;;;;;;;;;5115331;28;20019;-55
2021/03/16 12:34:47;;;;;;;6.43;1.80;;;;;;;;;;5115562;28;20085;-55
2021/03/16 12:37:13;;;;;;;8.27;1.95;;;;;;;;;;5114938;28;20023;-55
2021/03/16 12:39:39;;;;;;;4.47;2.20;;;;;;;;;;5115340;28;20026;-56
2021/03/16 12:42:06;;;;;;;2.00;1.33;;;;;;;;;;5114972;28;20069;-55
2021/03/16 12:44:32;;;;;;;6.15;2.15;;;;;;;;;;5114936;28;20031;-55
2021/03/16 12:46:58;;;;;;;10.38;2.00;;;;;;;;;;5114878;28;20027;-55
2021/03/16 12:49:24;;;;;;;9.85;1.75;;;;;;;;;;5115087;28;20020;-55
2021/03/16 12:51:50;;;;;;;5.35;1.40;;;;;;;;;;5115062;28;20389;-55
2021/03/16 12:54:16;;;;;;;11.10;1.85;;;;;;;;;;5114779;28;20066;-55
2021/03/16 12:56:43;;;;;;;5.53;1.77;;;;;;;;;;5114926;28;20027;-55
2021/03/16 12:59:09;;;;;;;7.60;1.90;;;;;;;;;;5114359;28;20569;-55
2021/03/16 13:01:34;;;;;;;5.78;1.90;;;;;;;;;;5114917;28;20035;-55
2021/03/16 13:04:00;;;;;;;3.90;1.75;;;;;;;;;;5114657;28;20030;-55
2021/03/16 13:06:27;;;;;;;6.55;2.00;;;;;;;;;;5114476;27;20441;-55
2021/03/16 13:08:53;;;;;;;4.50;2.20;;;;;;;;;;5114387;28;20141;-55
2021/03/16 13:11:19;;;;;;;3.35;1.92;;;;;;;;;;5115196;28;20498;-55
2021/03/16 13:13:45;;;;;;;13.13;2.35;;;;;;;;;;5114295;28;20030;-55
2021/03/16 13:16:11;;;;;;;5.22;2.55;;;;;;;;;;5114887;28;20051;-55
2021/03/16 13:18:37;;;;;;;6.32;1.95;;;;;;;;;;5114142;28;20015;-55
2021/03/16 13:21:03;;;;;;;7.10;2.25;;;;;;;;;;5114433;28;20036;-55
2021/03/16 13:23:29;;;;;;;4.65;1.60;;;;;;;;;;5114337;28;20035;-55
2021/03/16 13:25:55;;;;;;;3.58;1.63;;;;;;;;;;5114362;27;20024;-55
2021/03/16 13:28:21;;;;;;;9.68;2.03;;;;;;;;;;5098524;28;20403;-55
2021/03/16 13:30:47;;;;;;;4.35;2.13;;;;;;;;;;5112851;28;20024;-54
2021/03/16 13:33:13;;;;;;;4.72;2.08;;;;;;;;;;5113550;28;20429;-55
2021/03/16 13:35:39;;;;;;;3.50;2.08;;;;;;;;;;5114387;28;20027;-55
2021/03/16 13:38:05;;;;;;;2.75;1.73;;;;;;;;;;5113571;28;20072;-55
2021/03/16 13:40:31;;;;;;;6.72;1.27;;;;;;;;;;5113493;28;20091;-55
2021/03/16 13:42:57;;;;;;;2.60;1.70;;;;;;;;;;5113717;28;20035;-55
2021/03/16 13:45:23;;;;;;;4.78;1.60;;;;;;;;;;5114056;28;20098;-55
2021/03/16 13:47:49;;;;;;;4.38;1.95;;;;;;;;;;5113371;28;20019;-54
2021/03/16 13:50:16;;;;;;;2.33;1.40;;;;;;;;;;5114045;28;20027;-55
2021/03/16 13:52:42;;;;;;;3.45;2.20;;;;;;;;;;5113383;28;20024;-55
2021/03/16 13:55:09;;;;;;;3.17;1.95;;;;;;;;;;5113738;28;20032;-54
2021/03/16 13:57:35;;;;;;;4.30;2.05;;;;;;;;;;5113174;28;20027;-54
2021/03/16 14:00:01;;;;;;;9.27;2.53;;;;;;;;;;5113499;28;20106;-55
2021/03/16 14:02:27;;;;;;;3.38;2.03;;;;;;;;;;5113938;28;20044;-54
2021/03/16 14:04:53;;;;;;;2.65;1.20;;;;;;;;;;5113441;28;20408;-54
2021/03/16 14:07:19;;;;;;;6.18;1.88;;;;;;;;;;5113558;28;20448;-54
2021/03/16 14:09:45;;;;;;;8.57;2.25;;;;;;;;;;5113341;28;20041;-54
2021/03/16 14:12:11;;;;;;;2.95;1.80;;;;;;;;;;5113935;28;20019;-55
2021/03/16 14:14:37;;;;;;;4.88;1.73;;;;;;;;;;5113568;28;20050;-54
2021/03/16 14:17:03;;;;;;;7.07;1.80;;;;;;;;;;5113491;28;20434;-55
2021/03/16 14:19:29;;;;;;;3.28;1.42;;;;;;;;;;5112642;28;20034;-54
2021/03/16 14:21:55;;;;;;;2.72;1.85;;;;;;;;;;5113426;28;20360;-54
2021/03/16 14:24:21;;;;;;;2.88;1.48;;;;;;;;;;5113202;28;20020;-54
2021/03/16 14:26:47;;;;;;;5.97;1.40;;;;;;;;;;5113395;28;20027;-54
2021/03/16 14:29:13;;;;;;;5.00;1.65;;;;;;;;;;5113216;28;20024;-54
2021/03/16 14:31:39;;;;;;;5.97;1.60;;;;;;;;;;5096940;28;20039;-54
2021/03/16 14:34:08;;;;;;;3.70;1.40;;;;;;;;;;5093395;28;20157;-55
2021/03/16 14:36:34;;;;;;;6.53;2.33;;;;;;;;;;5093789;28;20129;-54
2021/03/16 14:39:01;;;;;;;6.28;2.22;;;;;;;;;;5106349;28;20531;-54
2021/03/16 14:41:27;;;;;;;3.22;1.88;;;;;;;;;;5092309;28;20293;-55